sensor_id;sensor_type;location;lat;lon;timestamp;P1;durP1;ratioP1;P2;durP2;ratioP2
20170;SDS011;10245;51.344;6.620;2023-06-22T00:02:06;11.25;;;8.38;;
20170;SDS011;10245;51.344;6.620;2023-06-22T00:04:30;12.93;;;9.00;;
20170;SDS011;10245;51.344;6.620;2023-06-22T00:06:53;11.90;;;9.50;;
20170;SDS011;10245;51.344;6.620;2023-06-22T00:09:16;12.43;;;9.35;;
20170;SDS011;10245;51.344;6.620;2023-06-22T00:11:41;13.25;;;8.23;;
20170;SDS011;10245;51.344;6.620;2023-06-22T00:14:04;12.27;;;9.98;;
20170;SDS011;10245;51.344;6.620;2023-06-22T00:16:28;10.98;;;8.30;;
20170;SDS011;10245;51.344;6.620;2023-06-22T00:18:51;10.35;;;8.57;;
20170;SDS011;10245;51.344;6.620;2023-06-22T00:21:14;13.30;;;8.95;;
20170;SDS011;10245;51.344;6.620;2023-06-22T00:23:37;16.35;;;9.02;;
20170;SDS011;10245;51.344;6.620;2023-06-22T00:26:00;11.60;;;9.10;;
20170;SDS011;10245;51.344;6.620;2023-06-22T00:28:25;11.63;;;9.23;;
20170;SDS011;10245;51.344;6.620;2023-06-22T00:30:50;15.38;;;10.18;;
20170;SDS011;10245;51.344;6.620;2023-06-22T00:33:13;12.77;;;8.88;;
20170;SDS011;10245;51.344;6.620;2023-06-22T00:35:37;12.50;;;9.68;;
20170;SDS011;10245;51.344;6.620;2023-06-22T00:38:02;11.60;;;8.93;;
20170;SDS011;10245;51.344;6.620;2023-06-22T00:40:26;15.10;;;9.07;;
20170;SDS011;10245;51.344;6.620;2023-06-22T00:42:51;13.35;;;10.23;;
20170;SDS011;10245;51.344;6.620;2023-06-22T00:45:16;13.68;;;9.45;;
20170;SDS011;10245;51.344;6.620;2023-06-22T00:47:39;12.52;;;9.30;;
20170;SDS011;10245;51.344;6.620;2023-06-22T00:50:05;11.95;;;9.25;;
20170;SDS011;10245;51.344;6.620;2023-06-22T00:52:31;15.60;;;9.52;;
20170;SDS011;10245;51.344;6.620;2023-06-22T00:54:56;13.05;;;9.57;;
20170;SDS011;10245;51.344;6.620;2023-06-22T00:57:23;14.77;;;9.50;;
20170;SDS011;10245;51.344;6.620;2023-06-22T00:59:49;11.90;;;10.05;;
20170;SDS011;10245;51.344;6.620;2023-06-22T01:02:14;13.18;;;10.70;;
20170;SDS011;10245;51.344;6.620;2023-06-22T01:04:37;13.98;;;11.32;;
20170;SDS011;10245;51.344;6.620;2023-06-22T01:07:02;16.50;;;10.27;;
20170;SDS011;10245;51.344;6.620;2023-06-22T01:09:35;11.40;;;10.13;;
20170;SDS011;10245;51.344;6.620;2023-06-22T01:12:09;15.10;;;10.23;;
20170;SDS011;10245;51.344;6.620;2023-06-22T01:14:35;14.70;;;10.48;;
20170;SDS011;10245;51.344;6.620;2023-06-22T01:17:02;16.17;;;10.55;;
20170;SDS011;10245;51.344;6.620;2023-06-22T01:19:34;12.50;;;10.23;;
20170;SDS011;10245;51.344;6.620;2023-06-22T01:22:04;14.13;;;11.23;;
20170;SDS011;10245;51.344;6.620;2023-06-22T01:24:33;14.90;;;10.65;;
20170;SDS011;10245;51.344;6.620;2023-06-22T01:27:15;13.32;;;9.60;;
20170;SDS011;10245;51.344;6.620;2023-06-22T01:29:52;15.07;;;12.35;;
20170;SDS011;10245;51.344;6.620;2023-06-22T01:32:22;19.60;;;12.82;;
20170;SDS011;10245;51.344;6.620;2023-06-22T01:34:46;18.83;;;12.50;;
20170;SDS011;10245;51.344;6.620;2023-06-22T01:37:11;19.05;;;11.65;;
20170;SDS011;10245;51.344;6.620;2023-06-22T01:39:36;14.70;;;11.75;;
20170;SDS011;10245;51.344;6.620;2023-06-22T01:42:00;14.23;;;11.43;;
20170;SDS011;10245;51.344;6.620;2023-06-22T01:44:24;15.10;;;12.02;;
20170;SDS011;10245;51.344;6.620;2023-06-22T01:46:49;16.17;;;11.77;;
20170;SDS011;10245;51.344;6.620;2023-06-22T01:49:14;12.35;;;10.43;;
20170;SDS011;10245;51.344;6.620;2023-06-22T01:51:38;12.75;;;10.05;;
20170;SDS011;10245;51.344;6.620;2023-06-22T01:54:01;15.38;;;10.63;;
20170;SDS011;10245;51.344;6.620;2023-06-22T01:56:24;15.48;;;11.25;;
20170;SDS011;10245;51.344;6.620;2023-06-22T01:58:50;17.15;;;11.38;;
20170;SDS011;10245;51.344;6.620;2023-06-22T02:01:22;17.67;;;12.10;;
20170;SDS011;10245;51.344;6.620;2023-06-22T02:03:52;17.25;;;11.40;;
20170;SDS011;10245;51.344;6.620;2023-06-22T02:06:23;16.95;;;11.07;;
20170;SDS011;10245;51.344;6.620;2023-06-22T02:08:57;13.43;;;10.52;;
20170;SDS011;10245;51.344;6.620;2023-06-22T02:11:23;15.07;;;10.63;;
20170;SDS011;10245;51.344;6.620;2023-06-22T02:13:50;15.57;;;11.68;;
20170;SDS011;10245;51.344;6.620;2023-06-22T02:16:14;14.38;;;10.43;;
20170;SDS011;10245;51.344;6.620;2023-06-22T02:18:39;19.42;;;11.43;;
20170;SDS011;10245;51.344;6.620;2023-06-22T02:21:10;16.45;;;11.95;;
20170;SDS011;10245;51.344;6.620;2023-06-22T02:23:33;15.20;;;10.80;;
20170;SDS011;10245;51.344;6.620;2023-06-22T02:25:57;16.70;;;11.57;;
20170;SDS011;10245;51.344;6.620;2023-06-22T02:28:20;16.65;;;10.98;;
20170;SDS011;10245;51.344;6.620;2023-06-22T02:30:43;14.30;;;11.55;;
20170;SDS011;10245;51.344;6.620;2023-06-22T02:33:06;16.05;;;11.82;;
20170;SDS011;10245;51.344;6.620;2023-06-22T02:35:30;17.25;;;12.95;;
20170;SDS011;10245;51.344;6.620;2023-06-22T02:37:55;14.65;;;10.55;;
20170;SDS011;10245;51.344;6.620;2023-06-22T02:40:19;14.90;;;11.65;;
20170;SDS011;10245;51.344;6.620;2023-06-22T02:42:43;18.15;;;12.90;;
20170;SDS011;10245;51.344;6.620;2023-06-22T02:45:07;17.67;;;12.52;;
20170;SDS011;10245;51.344;6.620;2023-06-22T02:47:31;19.35;;;12.00;;
20170;SDS011;10245;51.344;6.620;2023-06-22T02:49:54;16.83;;;12.80;;
20170;SDS011;10245;51.344;6.620;2023-06-22T02:52:18;16.30;;;12.20;;
20170;SDS011;10245;51.344;6.620;2023-06-22T02:54:43;14.18;;;11.50;;
20170;SDS011;10245;51.344;6.620;2023-06-22T02:57:08;19.10;;;13.75;;
20170;SDS011;10245;51.344;6.620;2023-06-22T02:59:36;20.50;;;14.30;;
20170;SDS011;10245;51.344;6.620;2023-06-22T03:02:04;21.90;;;14.55;;
20170;SDS011;10245;51.344;6.620;2023-06-22T03:04:27;16.77;;;12.25;;
20170;SDS011;10245;51.344;6.620;2023-06-22T03:06:52;18.85;;;13.73;;
20170;SDS011;10245;51.344;6.620;2023-06-22T03:09:16;21.52;;;14.30;;
20170;SDS011;10245;51.344;6.620;2023-06-22T03:11:41;19.20;;;14.80;;
20170;SDS011;10245;51.344;6.620;2023-06-22T03:14:04;19.23;;;14.23;;
20170;SDS011;10245;51.344;6.620;2023-06-22T03:16:27;19.25;;;13.98;;
20170;SDS011;10245;51.344;6.620;2023-06-22T03:18:52;17.70;;;12.82;;
20170;SDS011;10245;51.344;6.620;2023-06-22T03:21:15;20.10;;;14.65;;
20170;SDS011;10245;51.344;6.620;2023-06-22T03:23:39;18.95;;;14.63;;
20170;SDS011;10245;51.344;6.620;2023-06-22T03:26:02;18.08;;;13.13;;
20170;SDS011;10245;51.344;6.620;2023-06-22T03:28:27;19.02;;;14.02;;
20170;SDS011;10245;51.344;6.620;2023-06-22T03:30:51;21.30;;;14.68;;
20170;SDS011;10245;51.344;6.620;2023-06-22T03:33:14;20.90;;;15.63;;
20170;SDS011;10245;51.344;6.620;2023-06-22T03:35:37;19.27;;;14.77;;
20170;SDS011;10245;51.344;6.620;2023-06-22T03:38:00;19.88;;;15.10;;
20170;SDS011;10245;51.344;6.620;2023-06-22T03:40:25;18.77;;;15.30;;
20170;SDS011;10245;51.344;6.620;2023-06-22T03:42:50;19.65;;;16.15;;
20170;SDS011;10245;51.344;6.620;2023-06-22T03:45:14;22.30;;;17.30;;
20170;SDS011;10245;51.344;6.620;2023-06-22T03:47:38;21.13;;;16.48;;
20170;SDS011;10245;51.344;6.620;2023-06-22T03:50:01;18.52;;;15.10;;
20170;SDS011;10245;51.344;6.620;2023-06-22T03:52:25;19.42;;;14.75;;
20170;SDS011;10245;51.344;6.620;2023-06-22T03:54:49;19.70;;;15.40;;
20170;SDS011;10245;51.344;6.620;2023-06-22T03:57:12;18.45;;;16.23;;
20170;SDS011;10245;51.344;6.620;2023-06-22T03:59:35;19.30;;;15.43;;
20170;SDS011;10245;51.344;6.620;2023-06-22T04:02:00;16.58;;;14.65;;
20170;SDS011;10245;51.344;6.620;2023-06-22T04:04:23;17.02;;;14.50;;
20170;SDS011;10245;51.344;6.620;2023-06-22T04:06:46;19.70;;;15.45;;
20170;SDS011;10245;51.344;6.620;2023-06-22T04:09:10;21.23;;;15.43;;
20170;SDS011;10245;51.344;6.620;2023-06-22T04:11:33;20.60;;;16.10;;
20170;SDS011;10245;51.344;6.620;2023-06-22T04:13:56;21.33;;;16.15;;
20170;SDS011;10245;51.344;6.620;2023-06-22T04:16:20;24.65;;;17.38;;
20170;SDS011;10245;51.344;6.620;2023-06-22T04:18:44;19.95;;;15.30;;
20170;SDS011;10245;51.344;6.620;2023-06-22T04:21:07;21.15;;;15.45;;
20170;SDS011;10245;51.344;6.620;2023-06-22T04:23:32;22.70;;;15.98;;
20170;SDS011;10245;51.344;6.620;2023-06-22T04:25:56;23.48;;;16.45;;
20170;SDS011;10245;51.344;6.620;2023-06-22T04:28:19;20.88;;;16.23;;
20170;SDS011;10245;51.344;6.620;2023-06-22T04:30:42;17.60;;;15.35;;
20170;SDS011;10245;51.344;6.620;2023-06-22T04:33:08;18.13;;;16.05;;
20170;SDS011;10245;51.344;6.620;2023-06-22T04:35:33;21.17;;;17.52;;
20170;SDS011;10245;51.344;6.620;2023-06-22T04:37:57;20.77;;;16.50;;
20170;SDS011;10245;51.344;6.620;2023-06-22T04:40:21;22.67;;;18.25;;
20170;SDS011;10245;51.344;6.620;2023-06-22T04:42:45;19.38;;;16.40;;
20170;SDS011;10245;51.344;6.620;2023-06-22T04:45:15;19.45;;;15.05;;
20170;SDS011;10245;51.344;6.620;2023-06-22T04:47:38;18.25;;;16.23;;
20170;SDS011;10245;51.344;6.620;2023-06-22T04:50:02;24.35;;;17.73;;
20170;SDS011;10245;51.344;6.620;2023-06-22T04:52:28;23.42;;;18.55;;
20170;SDS011;10245;51.344;6.620;2023-06-22T04:54:52;22.52;;;17.08;;
20170;SDS011;10245;51.344;6.620;2023-06-22T04:57:21;21.08;;;17.40;;
20170;SDS011;10245;51.344;6.620;2023-06-22T04:59:54;21.27;;;17.63;;
20170;SDS011;10245;51.344;6.620;2023-06-22T05:02:17;24.25;;;17.67;;
20170;SDS011;10245;51.344;6.620;2023-06-22T05:04:40;21.75;;;17.77;;
20170;SDS011;10245;51.344;6.620;2023-06-22T05:07:04;23.33;;;17.65;;
20170;SDS011;10245;51.344;6.620;2023-06-22T05:09:30;20.83;;;17.65;;
20170;SDS011;10245;51.344;6.620;2023-06-22T05:11:55;22.48;;;18.42;;
20170;SDS011;10245;51.344;6.620;2023-06-22T05:14:18;21.80;;;18.23;;
20170;SDS011;10245;51.344;6.620;2023-06-22T05:16:42;22.77;;;17.95;;
20170;SDS011;10245;51.344;6.620;2023-06-22T05:19:06;26.63;;;18.50;;
20170;SDS011;10245;51.344;6.620;2023-06-22T05:21:30;22.58;;;18.15;;
20170;SDS011;10245;51.344;6.620;2023-06-22T05:23:53;32.25;;;19.15;;
20170;SDS011;10245;51.344;6.620;2023-06-22T05:26:19;23.85;;;18.90;;
20170;SDS011;10245;51.344;6.620;2023-06-22T05:28:42;25.52;;;19.30;;
20170;SDS011;10245;51.344;6.620;2023-06-22T05:31:07;22.60;;;18.10;;
20170;SDS011;10245;51.344;6.620;2023-06-22T05:33:30;24.25;;;19.40;;
20170;SDS011;10245;51.344;6.620;2023-06-22T05:35:53;22.00;;;18.52;;
20170;SDS011;10245;51.344;6.620;2023-06-22T05:38:16;24.10;;;18.10;;
20170;SDS011;10245;51.344;6.620;2023-06-22T05:40:40;25.08;;;18.58;;
20170;SDS011;10245;51.344;6.620;2023-06-22T05:43:04;22.10;;;16.98;;
20170;SDS011;10245;51.344;6.620;2023-06-22T05:45:27;22.17;;;18.35;;
20170;SDS011;10245;51.344;6.620;2023-06-22T05:47:51;21.77;;;18.45;;
20170;SDS011;10245;51.344;6.620;2023-06-22T05:50:14;27.02;;;17.92;;
20170;SDS011;10245;51.344;6.620;2023-06-22T05:52:38;26.73;;;17.85;;
20170;SDS011;10245;51.344;6.620;2023-06-22T05:55:02;24.55;;;18.75;;
20170;SDS011;10245;51.344;6.620;2023-06-22T05:57:26;26.88;;;16.80;;
20170;SDS011;10245;51.344;6.620;2023-06-22T05:59:50;20.67;;;17.05;;
20170;SDS011;10245;51.344;6.620;2023-06-22T06:02:15;24.58;;;18.30;;
20170;SDS011;10245;51.344;6.620;2023-06-22T06:04:38;23.02;;;15.10;;
20170;SDS011;10245;51.344;6.620;2023-06-22T06:07:02;22.55;;;16.90;;
20170;SDS011;10245;51.344;6.620;2023-06-22T06:09:25;25.17;;;16.83;;
20170;SDS011;10245;51.344;6.620;2023-06-22T06:11:48;18.92;;;14.80;;
20170;SDS011;10245;51.344;6.620;2023-06-22T06:14:11;21.83;;;15.32;;
20170;SDS011;10245;51.344;6.620;2023-06-22T06:16:36;19.48;;;13.98;;
20170;SDS011;10245;51.344;6.620;2023-06-22T06:18:59;16.65;;;14.65;;
20170;SDS011;10245;51.344;6.620;2023-06-22T06:21:22;17.23;;;14.55;;
20170;SDS011;10245;51.344;6.620;2023-06-22T06:23:46;18.00;;;13.65;;
20170;SDS011;10245;51.344;6.620;2023-06-22T06:26:09;17.30;;;14.27;;
20170;SDS011;10245;51.344;6.620;2023-06-22T06:28:32;16.67;;;13.75;;
20170;SDS011;10245;51.344;6.620;2023-06-22T06:30:56;16.70;;;13.82;;
20170;SDS011;10245;51.344;6.620;2023-06-22T06:33:20;15.88;;;12.75;;
20170;SDS011;10245;51.344;6.620;2023-06-22T06:35:46;18.35;;;12.77;;
20170;SDS011;10245;51.344;6.620;2023-06-22T06:38:09;16.33;;;13.15;;
20170;SDS011;10245;51.344;6.620;2023-06-22T06:40:33;16.42;;;12.60;;
20170;SDS011;10245;51.344;6.620;2023-06-22T06:42:56;18.40;;;12.82;;
20170;SDS011;10245;51.344;6.620;2023-06-22T06:45:21;16.05;;;12.55;;
20170;SDS011;10245;51.344;6.620;2023-06-22T06:47:46;14.05;;;11.35;;
20170;SDS011;10245;51.344;6.620;2023-06-22T06:50:11;17.15;;;12.32;;
20170;SDS011;10245;51.344;6.620;2023-06-22T06:52:35;12.45;;;11.25;;
20170;SDS011;10245;51.344;6.620;2023-06-22T06:54:59;16.30;;;13.23;;
20170;SDS011;10245;51.344;6.620;2023-06-22T06:57:24;14.73;;;13.13;;
20170;SDS011;10245;51.344;6.620;2023-06-22T06:59:50;14.57;;;12.88;;
20170;SDS011;10245;51.344;6.620;2023-06-22T07:02:13;13.90;;;12.38;;
20170;SDS011;10245;51.344;6.620;2023-06-22T07:04:37;15.20;;;12.27;;
20170;SDS011;10245;51.344;6.620;2023-06-22T07:07:02;12.50;;;11.30;;
20170;SDS011;10245;51.344;6.620;2023-06-22T07:09:25;12.82;;;11.18;;
20170;SDS011;10245;51.344;6.620;2023-06-22T07:11:48;14.02;;;10.95;;
20170;SDS011;10245;51.344;6.620;2023-06-22T07:14:12;16.45;;;10.07;;
20170;SDS011;10245;51.344;6.620;2023-06-22T07:16:35;14.50;;;10.27;;
20170;SDS011;10245;51.344;6.620;2023-06-22T07:18:58;11.50;;;10.15;;
20170;SDS011;10245;51.344;6.620;2023-06-22T07:21:21;12.82;;;10.30;;
20170;SDS011;10245;51.344;6.620;2023-06-22T07:23:46;13.85;;;10.13;;
20170;SDS011;10245;51.344;6.620;2023-06-22T07:26:10;15.90;;;12.27;;
20170;SDS011;10245;51.344;6.620;2023-06-22T07:28:33;19.35;;;12.18;;
20170;SDS011;10245;51.344;6.620;2023-06-22T07:30:59;15.65;;;12.52;;
20170;SDS011;10245;51.344;6.620;2023-06-22T07:33:22;21.27;;;14.10;;
20170;SDS011;10245;51.344;6.620;2023-06-22T07:35:45;16.45;;;14.02;;
20170;SDS011;10245;51.344;6.620;2023-06-22T07:38:09;17.65;;;15.00;;
20170;SDS011;10245;51.344;6.620;2023-06-22T07:40:34;19.00;;;15.88;;
20170;SDS011;10245;51.344;6.620;2023-06-22T07:42:59;21.10;;;15.05;;
20170;SDS011;10245;51.344;6.620;2023-06-22T07:45:22;19.80;;;16.55;;
20170;SDS011;10245;51.344;6.620;2023-06-22T07:47:45;19.20;;;15.27;;
20170;SDS011;10245;51.344;6.620;2023-06-22T07:50:09;22.08;;;16.13;;
20170;SDS011;10245;51.344;6.620;2023-06-22T07:52:32;17.67;;;15.43;;
20170;SDS011;10245;51.344;6.620;2023-06-22T07:54:56;19.48;;;17.38;;
20170;SDS011;10245;51.344;6.620;2023-06-22T07:57:20;17.30;;;15.45;;
20170;SDS011;10245;51.344;6.620;2023-06-22T07:59:44;20.25;;;16.23;;
20170;SDS011;10245;51.344;6.620;2023-06-22T08:02:07;27.67;;;17.55;;
20170;SDS011;10245;51.344;6.620;2023-06-22T08:04:31;21.92;;;17.92;;
20170;SDS011;10245;51.344;6.620;2023-06-22T08:06:56;25.60;;;17.67;;
20170;SDS011;10245;51.344;6.620;2023-06-22T08:09:19;29.55;;;18.23;;
20170;SDS011;10245;51.344;6.620;2023-06-22T08:11:43;23.73;;;17.95;;
20170;SDS011;10245;51.344;6.620;2023-06-22T08:14:07;20.83;;;18.00;;
20170;SDS011;10245;51.344;6.620;2023-06-22T08:16:30;26.00;;;19.48;;
20170;SDS011;10245;51.344;6.620;2023-06-22T08:18:53;22.17;;;17.15;;
20170;SDS011;10245;51.344;6.620;2023-06-22T08:21:17;24.08;;;18.73;;
20170;SDS011;10245;51.344;6.620;2023-06-22T08:23:41;19.02;;;16.92;;
20170;SDS011;10245;51.344;6.620;2023-06-22T08:26:04;51.20;;;20.98;;
20170;SDS011;10245;51.344;6.620;2023-06-22T08:28:27;21.70;;;17.45;;
20170;SDS011;10245;51.344;6.620;2023-06-22T08:30:52;21.50;;;17.63;;
20170;SDS011;10245;51.344;6.620;2023-06-22T08:33:16;22.55;;;18.40;;
20170;SDS011;10245;51.344;6.620;2023-06-22T08:35:48;19.70;;;17.60;;
20170;SDS011;10245;51.344;6.620;2023-06-22T08:38:11;19.98;;;16.33;;
20170;SDS011;10245;51.344;6.620;2023-06-22T08:40:37;20.83;;;16.90;;
20170;SDS011;10245;51.344;6.620;2023-06-22T08:43:00;25.25;;;16.40;;
20170;SDS011;10245;51.344;6.620;2023-06-22T08:45:23;22.80;;;16.98;;
20170;SDS011;10245;51.344;6.620;2023-06-22T08:47:50;21.85;;;19.30;;
20170;SDS011;10245;51.344;6.620;2023-06-22T08:50:14;23.20;;;18.15;;
20170;SDS011;10245;51.344;6.620;2023-06-22T08:52:37;41.90;;;20.33;;
20170;SDS011;10245;51.344;6.620;2023-06-22T08:55:03;27.58;;;19.15;;
20170;SDS011;10245;51.344;6.620;2023-06-22T08:57:27;21.08;;;17.48;;
20170;SDS011;10245;51.344;6.620;2023-06-22T08:59:51;22.52;;;18.60;;
20170;SDS011;10245;51.344;6.620;2023-06-22T09:02:15;25.90;;;19.50;;
20170;SDS011;10245;51.344;6.620;2023-06-22T09:04:39;23.15;;;18.60;;
20170;SDS011;10245;51.344;6.620;2023-06-22T09:07:03;26.65;;;18.35;;
20170;SDS011;10245;51.344;6.620;2023-06-22T09:09:28;23.92;;;18.05;;
20170;SDS011;10245;51.344;6.620;2023-06-22T09:11:51;28.67;;;21.90;;
20170;SDS011;10245;51.344;6.620;2023-06-22T09:14:14;19.25;;;16.23;;
20170;SDS011;10245;51.344;6.620;2023-06-22T09:16:38;20.63;;;17.25;;
20170;SDS011;10245;51.344;6.620;2023-06-22T09:19:01;24.88;;;18.80;;
20170;SDS011;10245;51.344;6.620;2023-06-22T09:21:26;24.73;;;18.90;;
20170;SDS011;10245;51.344;6.620;2023-06-22T09:23:52;30.98;;;21.30;;
20170;SDS011;10245;51.344;6.620;2023-06-22T09:26:15;22.52;;;18.92;;
20170;SDS011;10245;51.344;6.620;2023-06-22T09:28:39;34.95;;;21.50;;
20170;SDS011;10245;51.344;6.620;2023-06-22T09:31:02;31.95;;;22.95;;
20170;SDS011;10245;51.344;6.620;2023-06-22T09:33:25;37.22;;;24.63;;
20170;SDS011;10245;51.344;6.620;2023-06-22T09:35:49;31.48;;;25.17;;
20170;SDS011;10245;51.344;6.620;2023-06-22T09:38:13;36.33;;;27.08;;
20170;SDS011;10245;51.344;6.620;2023-06-22T09:40:37;32.58;;;23.35;;
20170;SDS011;10245;51.344;6.620;2023-06-22T09:43:01;26.13;;;20.75;;
20170;SDS011;10245;51.344;6.620;2023-06-22T09:45:24;30.83;;;24.00;;
20170;SDS011;10245;51.344;6.620;2023-06-22T09:47:47;26.17;;;22.27;;
20170;SDS011;10245;51.344;6.620;2023-06-22T09:50:11;25.52;;;21.33;;
20170;SDS011;10245;51.344;6.620;2023-06-22T09:52:34;22.52;;;20.13;;
20170;SDS011;10245;51.344;6.620;2023-06-22T09:55:02;23.02;;;19.10;;
20170;SDS011;10245;51.344;6.620;2023-06-22T09:57:26;20.85;;;17.10;;
20170;SDS011;10245;51.344;6.620;2023-06-22T09:59:49;26.27;;;19.55;;
20170;SDS011;10245;51.344;6.620;2023-06-22T10:02:12;21.52;;;16.52;;
20170;SDS011;10245;51.344;6.620;2023-06-22T10:04:36;22.27;;;17.35;;
20170;SDS011;10245;51.344;6.620;2023-06-22T10:07:01;18.60;;;16.67;;
20170;SDS011;10245;51.344;6.620;2023-06-22T10:09:25;21.30;;;14.35;;
20170;SDS011;10245;51.344;6.620;2023-06-22T10:11:49;22.35;;;17.02;;
20170;SDS011;10245;51.344;6.620;2023-06-22T10:14:12;20.83;;;14.75;;
20170;SDS011;10245;51.344;6.620;2023-06-22T10:16:36;18.63;;;16.67;;
20170;SDS011;10245;51.344;6.620;2023-06-22T10:18:59;25.13;;;16.88;;
20170;SDS011;10245;51.344;6.620;2023-06-22T10:21:22;19.10;;;16.73;;
20170;SDS011;10245;51.344;6.620;2023-06-22T10:23:47;18.58;;;16.25;;
20170;SDS011;10245;51.344;6.620;2023-06-22T10:26:10;18.38;;;14.65;;
20170;SDS011;10245;51.344;6.620;2023-06-22T10:28:35;18.52;;;16.60;;
20170;SDS011;10245;51.344;6.620;2023-06-22T10:30:58;18.00;;;15.23;;
20170;SDS011;10245;51.344;6.620;2023-06-22T10:33:21;21.05;;;16.13;;
20170;SDS011;10245;51.344;6.620;2023-06-22T10:35:45;18.90;;;15.75;;
20170;SDS011;10245;51.344;6.620;2023-06-22T10:38:08;17.63;;;13.75;;
20170;SDS011;10245;51.344;6.620;2023-06-22T10:40:32;19.75;;;14.40;;
20170;SDS011;10245;51.344;6.620;2023-06-22T10:42:55;19.75;;;16.63;;
20170;SDS011;10245;51.344;6.620;2023-06-22T10:45:20;17.67;;;15.57;;
20170;SDS011;10245;51.344;6.620;2023-06-22T10:47:43;18.65;;;14.35;;
20170;SDS011;10245;51.344;6.620;2023-06-22T10:50:07;18.55;;;16.15;;
20170;SDS011;10245;51.344;6.620;2023-06-22T10:52:30;19.90;;;17.55;;
20170;SDS011;10245;51.344;6.620;2023-06-22T10:54:54;20.73;;;16.77;;
20170;SDS011;10245;51.344;6.620;2023-06-22T10:57:17;20.20;;;16.13;;
20170;SDS011;10245;51.344;6.620;2023-06-22T10:59:40;20.08;;;15.98;;
20170;SDS011;10245;51.344;6.620;2023-06-22T11:02:05;19.95;;;16.58;;
20170;SDS011;10245;51.344;6.620;2023-06-22T11:04:29;20.55;;;17.75;;
20170;SDS011;10245;51.344;6.620;2023-06-22T11:06:52;22.55;;;17.75;;
20170;SDS011;10245;51.344;6.620;2023-06-22T11:09:17;23.30;;;18.77;;
20170;SDS011;10245;51.344;6.620;2023-06-22T11:11:49;24.85;;;20.55;;
20170;SDS011;10245;51.344;6.620;2023-06-22T11:14:15;23.52;;;21.13;;
20170;SDS011;10245;51.344;6.620;2023-06-22T11:16:38;26.52;;;21.83;;
20170;SDS011;10245;51.344;6.620;2023-06-22T11:19:04;24.08;;;21.00;;
20170;SDS011;10245;51.344;6.620;2023-06-22T11:21:28;26.98;;;20.38;;
20170;SDS011;10245;51.344;6.620;2023-06-22T11:23:51;34.58;;;24.95;;
20170;SDS011;10245;51.344;6.620;2023-06-22T11:26:14;26.65;;;23.70;;
20170;SDS011;10245;51.344;6.620;2023-06-22T11:28:37;33.65;;;22.80;;
20170;SDS011;10245;51.344;6.620;2023-06-22T11:31:01;33.83;;;24.52;;
20170;SDS011;10245;51.344;6.620;2023-06-22T11:33:41;28.20;;;22.55;;
20170;SDS011;10245;51.344;6.620;2023-06-22T11:36:07;34.63;;;24.58;;
20170;SDS011;10245;51.344;6.620;2023-06-22T11:38:30;37.25;;;28.58;;
20170;SDS011;10245;51.344;6.620;2023-06-22T11:40:55;27.42;;;24.58;;
20170;SDS011;10245;51.344;6.620;2023-06-22T11:43:18;29.30;;;24.60;;
20170;SDS011;10245;51.344;6.620;2023-06-22T11:45:41;30.48;;;25.60;;
20170;SDS011;10245;51.344;6.620;2023-06-22T11:48:05;29.48;;;26.23;;
20170;SDS011;10245;51.344;6.620;2023-06-22T11:50:28;33.08;;;28.33;;
20170;SDS011;10245;51.344;6.620;2023-06-22T11:52:57;34.92;;;28.90;;
20170;SDS011;10245;51.344;6.620;2023-06-22T11:55:20;29.25;;;26.13;;
20170;SDS011;10245;51.344;6.620;2023-06-22T11:57:52;31.10;;;26.83;;
20170;SDS011;10245;51.344;6.620;2023-06-22T12:00:17;37.42;;;30.10;;
20170;SDS011;10245;51.344;6.620;2023-06-22T12:02:42;29.90;;;26.58;;
20170;SDS011;10245;51.344;6.620;2023-06-22T12:05:06;29.48;;;24.98;;
20170;SDS011;10245;51.344;6.620;2023-06-22T12:07:30;37.00;;;30.10;;
20170;SDS011;10245;51.344;6.620;2023-06-22T12:09:55;46.63;;;37.30;;
20170;SDS011;10245;51.344;6.620;2023-06-22T12:12:18;35.95;;;31.30;;
20170;SDS011;10245;51.344;6.620;2023-06-22T12:14:41;36.20;;;29.20;;
20170;SDS011;10245;51.344;6.620;2023-06-22T12:17:05;35.17;;;31.38;;
20170;SDS011;10245;51.344;6.620;2023-06-22T12:19:28;34.60;;;30.65;;
20170;SDS011;10245;51.344;6.620;2023-06-22T12:21:51;32.15;;;28.85;;
20170;SDS011;10245;51.344;6.620;2023-06-22T12:24:14;34.67;;;30.98;;
20170;SDS011;10245;51.344;6.620;2023-06-22T12:26:39;39.03;;;32.45;;
20170;SDS011;10245;51.344;6.620;2023-06-22T12:29:03;32.78;;;29.30;;
20170;SDS011;10245;51.344;6.620;2023-06-22T12:31:26;32.38;;;29.08;;
20170;SDS011;10245;51.344;6.620;2023-06-22T12:33:49;35.17;;;31.25;;
20170;SDS011;10245;51.344;6.620;2023-06-22T12:36:12;35.70;;;30.58;;
20170;SDS011;10245;51.344;6.620;2023-06-22T12:38:37;33.78;;;30.17;;
20170;SDS011;10245;51.344;6.620;2023-06-22T12:41:00;34.95;;;30.95;;
20170;SDS011;10245;51.344;6.620;2023-06-22T12:43:25;32.70;;;29.10;;
20170;SDS011;10245;51.344;6.620;2023-06-22T12:45:48;34.65;;;30.98;;
20170;SDS011;10245;51.344;6.620;2023-06-22T12:48:12;34.10;;;30.50;;
20170;SDS011;10245;51.344;6.620;2023-06-22T12:50:35;39.88;;;34.15;;
20170;SDS011;10245;51.344;6.620;2023-06-22T12:52:58;32.92;;;29.65;;
20170;SDS011;10245;51.344;6.620;2023-06-22T12:55:23;40.67;;;35.50;;
20170;SDS011;10245;51.344;6.620;2023-06-22T12:57:46;34.17;;;30.75;;
20170;SDS011;10245;51.344;6.620;2023-06-22T13:00:11;38.10;;;34.10;;
20170;SDS011;10245;51.344;6.620;2023-06-22T13:02:37;38.35;;;34.03;;
20170;SDS011;10245;51.344;6.620;2023-06-22T13:05:00;44.58;;;39.67;;
20170;SDS011;10245;51.344;6.620;2023-06-22T13:07:24;34.85;;;31.23;;
20170;SDS011;10245;51.344;6.620;2023-06-22T13:09:47;37.42;;;33.55;;
20170;SDS011;10245;51.344;6.620;2023-06-22T13:12:13;39.65;;;35.53;;
20170;SDS011;10245;51.344;6.620;2023-06-22T13:14:36;42.05;;;37.00;;
20170;SDS011;10245;51.344;6.620;2023-06-22T13:17:01;41.78;;;33.42;;
20170;SDS011;10245;51.344;6.620;2023-06-22T13:19:24;43.90;;;38.90;;
20170;SDS011;10245;51.344;6.620;2023-06-22T13:21:50;43.13;;;38.03;;
20170;SDS011;10245;51.344;6.620;2023-06-22T13:24:13;36.00;;;32.20;;
20170;SDS011;10245;51.344;6.620;2023-06-22T13:26:37;40.50;;;36.35;;
20170;SDS011;10245;51.344;6.620;2023-06-22T13:29:00;43.83;;;39.38;;
20170;SDS011;10245;51.344;6.620;2023-06-22T13:31:24;41.95;;;37.58;;
20170;SDS011;10245;51.344;6.620;2023-06-22T13:33:48;44.95;;;40.08;;
20170;SDS011;10245;51.344;6.620;2023-06-22T13:36:13;38.67;;;34.80;;
20170;SDS011;10245;51.344;6.620;2023-06-22T13:38:37;38.38;;;34.22;;
20170;SDS011;10245;51.344;6.620;2023-06-22T13:41:00;38.83;;;35.00;;
20170;SDS011;10245;51.344;6.620;2023-06-22T13:43:23;37.42;;;33.42;;
20170;SDS011;10245;51.344;6.620;2023-06-22T13:45:47;39.85;;;35.63;;
20170;SDS011;10245;51.344;6.620;2023-06-22T13:48:10;37.60;;;33.75;;
20170;SDS011;10245;51.344;6.620;2023-06-22T13:50:35;41.20;;;36.88;;
20170;SDS011;10245;51.344;6.620;2023-06-22T13:52:58;37.30;;;33.42;;
20170;SDS011;10245;51.344;6.620;2023-06-22T13:55:21;39.20;;;35.15;;
20170;SDS011;10245;51.344;6.620;2023-06-22T13:57:45;38.00;;;34.10;;
20170;SDS011;10245;51.344;6.620;2023-06-22T14:00:09;39.55;;;35.50;;
20170;SDS011;10245;51.344;6.620;2023-06-22T14:02:33;40.03;;;35.83;;
20170;SDS011;10245;51.344;6.620;2023-06-22T14:04:57;38.92;;;34.97;;
20170;SDS011;10245;51.344;6.620;2023-06-22T14:07:21;35.30;;;31.80;;